Time;durP1;ratioP1;P1;durP2;ratioP2;P2;SDS_P1;SDS_P2;PMS_P1;PMS_P2;Temp;Humidity;BMP_temperature;BMP_pressure;BME280_temperature;BME280_humidity;BME280_pressure;Samples;Min_cycle;Max_cycle;Signal;HPM_P1;HPM_P2
2023/02/02 00:00:53;;;;;;;6.27;2.30;;;4.80;79.00;;;;;;5057951;28;20214;-90
2023/02/02 00:03:20;;;;;;;9.70;1.93;;;4.80;78.40;;;;;;5056104;28;20232;-90
2023/02/02 00:05:51;;;;;;;9.47;2.40;;;4.80;79.20;;;;;;5059422;28;20193;-89
2023/02/02 00:08:19;;;;;;;10.57;2.73;;;4.80;79.70;;;;;;5057614;28;20286;-90
2023/02/02 00:10:46;;;;;;;6.70;1.87;;;4.80;79.30;;;;;;5058303;28;20240;-90
2023/02/02 00:13:14;;;;;;;5.53;2.27;;;4.80;79.10;;;;;;5056536;28;20662;-90
2023/02/02 00:15:41;;;;;;;6.60;2.07;;;4.70;79.80;;;;;;5056613;28;20228;-90
2023/02/02 00:18:10;;;;;;;8.77;2.03;;;4.70;81.20;;;;;;5036087;28;20210;-90
2023/02/02 00:20:37;;;;;;;11.17;2.10;;;4.70;80.50;;;;;;5059468;28;20205;-90
2023/02/02 00:23:05;;;;;;;6.47;1.90;;;4.80;80.40;;;;;;5056667;28;20201;-90
2023/02/02 00:25:32;;;;;;;7.97;2.13;;;4.70;80.30;;;;;;5056729;28;20214;-90
2023/02/02 00:27:59;;;;;;;3.93;1.87;;;4.70;81.00;;;;;;5056424;28;20198;-90
2023/02/02 00:30:26;;;;;;;6.73;2.07;;;4.70;80.30;;;;;;5054657;28;20206;-90
2023/02/02 00:32:53;;;;;;;8.13;2.13;;;4.70;80.80;;;;;;5060079;28;20208;-90
2023/02/02 00:35:20;;;;;;;7.83;2.20;;;4.70;81.30;;;;;;5042823;28;20224;-90
2023/02/02 00:37:48;;;;;;;6.70;1.83;;;4.70;81.00;;;;;;5061127;28;20204;-90
2023/02/02 00:40:17;;;;;;;8.33;2.20;;;4.70;81.20;;;;;;5052613;28;20206;-89
2023/02/02 00:42:47;;;;;;;9.03;1.80;;;4.70;80.30;;;;;;5058826;28;20206;-90
2023/02/02 00:45:16;;;;;;;8.23;2.13;;;4.70;81.00;;;;;;5043587;28;20218;-90
2023/02/02 00:47:45;;;;;;;8.33;2.17;;;4.70;82.30;;;;;;5059746;28;20261;-89
2023/02/02 00:50:13;;;;;;;10.43;2.17;;;4.70;82.30;;;;;;5058022;28;20194;-90
2023/02/02 00:52:40;;;;;;;9.43;1.90;;;4.70;83.80;;;;;;5060835;28;20216;-89
2023/02/02 00:55:09;;;;;;;5.80;1.97;;;4.60;84.00;;;;;;5054683;28;20668;-91
2023/02/02 00:57:38;;;;;;;7.07;2.20;;;4.60;85.00;;;;;;5060815;28;20231;-91
2023/02/02 01:00:07;;;;;;;9.43;1.93;;;4.50;86.00;;;;;;5059054;28;20204;-91
2023/02/02 01:02:34;;;;;;;5.07;2.00;;;4.50;86.60;;;;;;5065045;28;20208;-91
2023/02/02 01:05:03;;;;;;;5.37;2.20;;;4.50;87.30;;;;;;5062681;28;20228;-91
2023/02/02 01:07:30;;;;;;;6.63;2.20;;;4.50;88.70;;;;;;5062106;28;20273;-92
2023/02/02 01:09:57;;;;;;;6.90;1.97;;;4.50;89.70;;;;;;5058590;28;20240;-91
2023/02/02 01:12:24;;;;;;;6.63;2.43;;;4.40;90.60;;;;;;5054858;28;20213;-90
2023/02/02 01:14:53;;;;;;;6.33;2.07;;;4.30;91.20;;;;;;5055337;28;20190;-91
2023/02/02 01:17:20;;;;;;;10.37;2.50;;;4.20;91.40;;;;;;5053184;28;20212;-90
2023/02/02 01:19:46;;;;;;;8.30;2.37;;;4.20;91.80;;;;;;5054462;28;20229;-90
2023/02/02 01:22:13;;;;;;;8.80;2.67;;;4.20;92.20;;;;;;5060491;28;20199;-89
2023/02/02 01:24:40;;;;;;;8.90;2.63;;;4.20;92.20;;;;;;5061482;28;20987;-90
2023/02/02 01:27:07;;;;;;;4.67;2.03;;;4.10;92.20;;;;;;5061391;28;20228;-90
2023/02/02 01:29:34;;;;;;;5.00;1.97;;;4.10;92.20;;;;;;5057584;28;20194;-90
2023/02/02 01:32:03;;;;;;;7.07;2.13;;;4.10;92.20;;;;;;5050750;28;20205;-90
2023/02/02 01:34:30;;;;;;;6.67;2.07;;;4.20;92.40;;;;;;5052487;28;20198;-90
2023/02/02 01:36:56;;;;;;;10.20;2.27;;;4.10;92.20;;;;;;5052876;28;20568;-90
2023/02/02 01:39:23;;;;;;;5.87;2.10;;;4.20;91.90;;;;;;5055326;28;20201;-90
2023/02/02 01:41:50;;;;;;;6.07;2.03;;;4.20;91.70;;;;;;5052188;28;20206;-90
2023/02/02 01:44:54;;;;;;;8.93;2.40;;;4.20;91.40;;;;;;5058903;28;20248;-89
2023/02/02 01:47:26;;;;;;;10.03;2.23;;;4.20;91.40;;;;;;5073017;28;20200;-90
2023/02/02 01:49:55;;;;;;;9.77;2.13;;;4.30;91.20;;;;;;5058658;28;20208;-91
2023/02/02 01:52:25;;;;;;;7.00;2.17;;;4.30;90.60;;;;;;5055259;28;20194;-90
2023/02/02 01:54:59;;;;;;;5.37;2.13;;;4.30;90.90;;;;;;5055215;28;20205;-90
2023/02/02 01:57:30;;;;;;;6.60;2.43;;;4.40;91.00;;;;;;5044480;28;21033;-90
2023/02/02 01:59:59;;;;;;;8.90;2.13;;;4.40;90.20;;;;;;5053018;28;20206;-90
2023/02/02 02:02:29;;;;;;;5.50;2.17;;;4.40;90.40;;;;;;5034130;28;20205;-90
2023/02/02 02:04:56;;;;;;;7.60;2.20;;;4.40;90.30;;;;;;5049568;28;20235;-90
2023/02/02 02:07:24;;;;;;;7.87;2.30;;;4.50;88.70;;;;;;5052776;28;20204;-91
2023/02/02 02:09:51;;;;;;;8.73;2.20;;;4.50;89.10;;;;;;5028239;28;20234;-90
2023/02/02 02:12:18;;;;;;;6.60;2.30;;;4.50;89.60;;;;;;5046050;28;20204;-90
2023/02/02 02:17:51;;;;;;;7.67;2.07;;;4.50;88.70;;;;;;5051142;28;20213;-90
2023/02/02 02:27:03;;;;;;;10.00;2.30;;;4.40;88.60;;;;;;5049088;28;20196;-90
2023/02/02 02:30:03;;;;;;;7.00;2.30;;;4.40;88.60;;;;;;5054171;28;20197;-90
2023/02/02 02:32:40;;;;;;;6.70;2.50;;;4.50;88.70;;;;;;5047099;28;20209;-89
2023/02/02 02:35:17;;;;;;;7.93;2.10;;;4.50;88.70;;;;;;5049657;28;20206;-90
2023/02/02 02:37:48;;;;;;;7.83;2.30;;;4.50;88.70;;;;;;5046887;28;20202;-90
2023/02/02 02:40:20;;;;;;;5.33;1.93;;;4.50;88.70;;;;;;5050423;28;20304;-90
2023/02/02 02:42:52;;;;;;;8.07;2.50;;;4.50;88.70;;;;;;5043567;28;20592;-89
2023/02/02 02:45:19;;;;;;;9.23;2.33;;;4.50;88.70;;;;;;5047731;28;20236;-90
2023/02/02 02:47:50;;;;;;;7.83;2.23;;;4.50;88.70;;;;;;5045020;28;20225;-90
2023/02/02 02:50:17;;;;;;;7.63;2.10;;;4.50;88.70;;;;;;5048499;28;20198;-90
2023/02/02 02:52:47;;;;;;;7.00;2.13;;;4.60;88.70;;;;;;5049548;28;20666;-90
2023/02/02 02:55:15;;;;;;;8.77;2.00;;;4.50;88.70;;;;;;5053019;28;20233;-89
2023/02/02 02:57:58;;;;;;;9.53;2.00;;;4.50;87.70;;;;;;5046915;28;20198;-89
2023/02/02 03:00:38;;;;;;;6.83;2.50;;;4.50;88.70;;;;;;5049666;28;20198;-90
2023/02/02 03:03:14;;;;;;;8.37;2.10;;;4.50;88.70;;;;;;5048740;28;20584;-90
2023/02/02 03:05:51;;;;;;;6.87;2.03;;;4.50;88.70;;;;;;5048833;28;20234;-90
2023/02/02 03:08:23;;;;;;;7.53;2.10;;;4.60;88.20;;;;;;5047604;28;20212;-90
2023/02/02 03:10:52;;;;;;;7.53;1.80;;;4.60;88.70;;;;;;5046917;28;20230;-90
2023/02/02 03:13:19;;;;;;;9.57;2.20;;;4.50;88.70;;;;;;5048226;28;20207;-90
2023/02/02 03:15:46;;;;;;;7.43;2.37;;;4.60;88.70;;;;;;5052411;28;20280;-90
2023/02/02 03:18:17;;;;;;;5.10;2.10;;;4.50;88.70;;;;;;5050723;28;20910;-90
2023/02/02 03:20:45;;;;;;;5.87;2.10;;;4.60;88.70;;;;;;5048880;28;20210;-90
2023/02/02 03:23:12;;;;;;;4.93;1.90;;;4.60;88.70;;;;;;5050070;28;20201;-90
2023/02/02 03:25:39;;;;;;;8.33;2.17;;;4.60;88.70;;;;;;5049330;28;20222;-90
2023/02/02 03:28:06;;;;;;;5.50;2.10;;;4.50;90.10;;;;;;5051908;28;20210;-90
2023/02/02 03:30:34;;;;;;;6.80;2.33;;;4.50;90.40;;;;;;5053682;28;20560;-90
2023/02/02 03:33:01;;;;;;;8.00;2.30;;;4.50;90.50;;;;;;5051818;28;20280;-90
2023/02/02 03:35:29;;;;;;;5.97;2.17;;;4.50;90.40;;;;;;5053284;28;20274;-90
2023/02/02 03:37:56;;;;;;;8.83;2.57;;;4.40;90.90;;;;;;5048489;28;20198;-90
2023/02/02 03:40:23;;;;;;;5.93;1.80;;;4.40;91.30;;;;;;5054707;28;20664;-89
2023/02/02 03:42:50;;;;;;;7.30;2.70;;;4.40;92.00;;;;;;5049320;28;20201;-90
2023/02/02 03:45:17;;;;;;;5.87;2.33;;;4.30;92.50;;;;;;5050661;28;20240;-89
2023/02/02 03:47:44;;;;;;;7.87;2.53;;;4.30;93.00;;;;;;5059428;28;20202;-91
2023/02/02 03:50:11;;;;;;;6.27;2.37;;;4.20;93.70;;;;;;5064730;28;20273;-90
2023/02/02 03:52:40;;;;;;;5.23;2.27;;;4.10;93.60;;;;;;5053977;28;20213;-90
2023/02/02 03:55:08;;;;;;;6.83;2.40;;;4.10;93.60;;;;;;5066345;28;20210;-90
2023/02/02 03:57:35;;;;;;;7.07;2.27;;;4.10;93.60;;;;;;5070211;28;20201;-90
2023/02/02 04:00:03;;;;;;;6.30;2.30;;;4.10;93.20;;;;;;5066022;28;20202;-90
2023/02/02 04:02:29;;;;;;;7.77;2.47;;;4.20;92.90;;;;;;5054061;28;20285;-90
2023/02/02 04:04:57;;;;;;;6.30;2.30;;;4.20;92.80;;;;;;5051078;28;20226;-90
2023/02/02 04:07:24;;;;;;;9.13;2.73;;;4.20;92.70;;;;;;5054464;28;20210;-90
2023/02/02 04:09:53;;;;;;;5.30;2.20;;;4.20;92.60;;;;;;5057271;28;20424;-90
2023/02/02 04:12:20;;;;;;;7.90;2.23;;;4.30;92.70;;;;;;5060862;28;20259;-90
2023/02/02 04:14:47;;;;;;;4.60;2.00;;;4.30;92.50;;;;;;5056857;28;20244;-90
2023/02/02 04:17:14;;;;;;;6.83;1.83;;;4.30;92.20;;;;;;5055375;28;20202;-91
2023/02/02 04:19:41;;;;;;;7.33;1.80;;;4.40;92.30;;;;;;5073662;28;20265;-90
2023/02/02 04:22:09;;;;;;;4.97;2.10;;;4.40;92.30;;;;;;5067600;28;20218;-90
2023/02/02 04:24:36;;;;;;;6.10;2.00;;;4.40;92.60;;;;;;5057451;28;20240;-90
2023/02/02 04:27:04;;;;;;;7.03;2.50;;;4.40;92.30;;;;;;5057275;28;20202;-91
2023/02/02 04:29:31;;;;;;;4.97;2.20;;;4.40;92.40;;;;;;5055066;28;20198;-90
2023/02/02 04:31:58;;;;;;;8.47;2.20;;;4.40;92.30;;;;;;5053609;28;20213;-90
2023/02/02 04:34:25;;;;;;;7.17;2.30;;;4.40;92.10;;;;;;5056275;28;20225;-90
2023/02/02 04:36:52;;;;;;;7.30;2.27;;;4.50;92.20;;;;;;5056065;28;20549;-91
2023/02/02 04:39:19;;;;;;;8.17;2.27;;;4.50;91.90;;;;;;5033897;28;20205;-90
2023/02/02 04:41:46;;;;;;;5.33;1.80;;;4.50;92.10;;;;;;5054080;28;20208;-90
2023/02/02 04:44:15;;;;;;;7.40;2.10;;;4.50;92.50;;;;;;5033890;28;20202;-90
2023/02/02 04:46:42;;;;;;;7.97;2.07;;;4.40;92.70;;;;;;5055724;28;20224;-90
2023/02/02 04:49:10;;;;;;;6.13;2.00;;;4.40;93.10;;;;;;5060097;28;20274;-90
2023/02/02 04:51:37;;;;;;;7.33;1.77;;;4.30;92.90;;;;;;5054923;28;20213;-90
2023/02/02 04:54:05;;;;;;;4.07;2.03;;;4.40;92.90;;;;;;5055390;28;20949;-90
2023/02/02 04:56:32;;;;;;;5.50;1.87;;;4.40;92.70;;;;;;5058365;28;20208;-90
2023/02/02 04:58:59;;;;;;;4.93;2.07;;;4.50;92.20;;;;;;5048664;28;20194;-90
2023/02/02 05:01:29;;;;;;;10.93;2.13;;;4.50;91.80;;;;;;5050184;28;20213;-89
2023/02/02 05:03:56;;;;;;;8.20;2.30;;;4.50;91.90;;;;;;5052399;28;20202;-90
2023/02/02 05:06:23;;;;;;;9.53;2.10;;;4.60;91.70;;;;;;5056149;28;20214;-90
2023/02/02 05:08:51;;;;;;;5.13;2.20;;;4.60;91.50;;;;;;5055280;28;20202;-90
2023/02/02 05:11:22;;;;;;;6.67;2.27;;;4.60;91.60;;;;;;5046935;28;20340;-90
2023/02/02 05:13:53;;;;;;;7.80;2.10;;;4.60;91.40;;;;;;5056339;28;20206;-90
2023/02/02 05:16:21;;;;;;;8.90;2.00;;;4.60;91.80;;;;;;5055911;28;20255;-90
2023/02/02 05:18:51;;;;;;;8.93;2.27;;;4.60;91.40;;;;;;5061021;28;20206;-90
2023/02/02 05:21:19;;;;;;;8.13;2.10;;;4.70;91.30;;;;;;5055844;28;20545;-90
2023/02/02 05:23:46;;;;;;;6.10;2.20;;;4.70;91.30;;;;;;5052823;28;20218;-89
2023/02/02 05:26:17;;;;;;;5.17;1.97;;;4.60;91.40;;;;;;5054747;28;20225;-90
2023/02/02 05:28:44;;;;;;;8.57;2.10;;;4.70;91.50;;;;;;5057063;28;20236;-90
2023/02/02 05:31:11;;;;;;;5.47;1.77;;;4.70;91.30;;;;;;5055436;28;20217;-90
2023/02/02 05:33:38;;;;;;;8.13;2.23;;;4.70;91.60;;;;;;5034337;28;20210;-91
2023/02/02 05:36:08;;;;;;;4.47;1.80;;;4.70;91.60;;;;;;5051464;28;20195;-90
2023/02/02 05:38:35;;;;;;;5.60;2.20;;;4.60;91.80;;;;;;5055309;28;20202;-90
2023/02/02 05:41:02;;;;;;;5.67;1.80;;;4.60;92.30;;;;;;5051698;28;20205;-90
2023/02/02 05:43:31;;;;;;;5.20;1.73;;;4.50;92.50;;;;;;5054631;28;20205;-90
2023/02/02 05:45:58;;;;;;;3.93;2.00;;;4.50;92.60;;;;;;5054824;28;20217;-91
2023/02/02 05:48:25;;;;;;;7.07;2.10;;;4.50;93.00;;;;;;5058854;28;20202;-91
2023/02/02 05:50:59;;;;;;;5.60;2.13;;;4.50;92.60;;;;;;5055132;28;21034;-91
2023/02/02 05:53:29;;;;;;;5.80;1.97;;;4.50;92.80;;;;;;5060346;28;20206;-91
2023/02/02 05:55:56;;;;;;;7.77;2.10;;;4.50;93.20;;;;;;5059172;28;20197;-91
2023/02/02 05:58:23;;;;;;;5.53;2.17;;;4.40;93.60;;;;;;5055335;28;20198;-91
2023/02/02 06:00:50;;;;;;;3.77;1.90;;;4.30;93.70;;;;;;5055303;28;20571;-90
2023/02/02 06:03:17;;;;;;;4.63;1.87;;;4.40;93.80;;;;;;5061228;28;20714;-90
2023/02/02 06:05:44;;;;;;;6.90;1.93;;;4.40;93.70;;;;;;5048889;28;20276;-89
2023/02/02 06:08:11;;;;;;;3.87;1.90;;;4.40;94.00;;;;;;5054420;28;20630;-90
2023/02/02 06:10:40;;;;;;;4.20;1.93;;;4.50;93.40;;;;;;5051096;28;20229;-90
2023/02/02 06:13:07;;;;;;;4.40;1.90;;;4.50;93.40;;;;;;5048961;28;20662;-87
2023/02/02 06:15:35;;;;;;;6.23;1.87;;;4.50;92.60;;;;;;5044249;28;20581;-87
2023/02/02 06:18:02;;;;;;;4.97;2.17;;;4.50;92.60;;;;;;5048462;28;20202;-90
2023/02/02 06:20:33;;;;;;;4.77;2.10;;;4.60;92.80;;;;;;5046701;28;20197;-90
2023/02/02 06:23:00;;;;;;;5.27;2.17;;;4.50;92.70;;;;;;5031159;28;20209;-89
2023/02/02 06:25:27;;;;;;;5.40;2.17;;;4.60;92.80;;;;;;5060045;28;20227;-89
2023/02/02 06:27:57;;;;;;;3.60;1.70;;;4.50;92.90;;;;;;5050572;28;20383;-87
2023/02/02 06:30:24;;;;;;;7.70;1.90;;;4.50;92.70;;;;;;5036668;28;20243;-89
2023/02/02 06:32:51;;;;;;;7.60;1.80;;;4.60;92.50;;;;;;5046977;28;20268;-89
2023/02/02 06:35:18;;;;;;;4.17;2.07;;;4.60;92.60;;;;;;5041375;28;20196;-89
2023/02/02 06:37:47;;;;;;;5.17;2.00;;;4.60;92.30;;;;;;5049787;28;20209;-89
2023/02/02 06:40:15;;;;;;;6.13;1.70;;;4.60;92.30;;;;;;5049141;28;20202;-89
2023/02/02 06:42:41;;;;;;;6.43;1.70;;;4.60;92.30;;;;;;5046108;28;20281;-89
2023/02/02 06:45:11;;;;;;;8.73;2.00;;;4.60;92.50;;;;;;5048567;28;20201;-89
2023/02/02 06:47:38;;;;;;;5.00;1.93;;;4.60;92.60;;;;;;5048928;28;20186;-91
2023/02/02 06:50:05;;;;;;;7.33;2.30;;;4.60;92.30;;;;;;5048050;28;20217;-88
2023/02/02 06:52:32;;;;;;;8.93;2.00;;;4.60;92.10;;;;;;5049286;28;20190;-91
2023/02/02 06:54:59;;;;;;;5.37;1.80;;;4.60;92.10;;;;;;5060021;28;20205;-89
2023/02/02 06:57:26;;;;;;;5.57;1.87;;;4.70;91.70;;;;;;5047250;28;20197;-89
2023/02/02 06:59:53;;;;;;;4.57;2.10;;;4.70;91.90;;;;;;5051448;28;20193;-90
2023/02/02 07:02:22;;;;;;;2.93;1.60;;;4.70;91.90;;;;;;5053158;28;20185;-90
2023/02/02 07:04:49;;;;;;;5.80;2.07;;;4.80;92.00;;;;;;5051025;28;20208;-90
2023/02/02 07:07:16;;;;;;;9.47;2.27;;;4.70;92.10;;;;;;5043303;28;20743;-90
2023/02/02 07:09:43;;;;;;;4.10;2.13;;;4.70;92.00;;;;;;5028117;28;20224;-89
2023/02/02 07:12:10;;;;;;;8.03;2.17;;;4.70;92.10;;;;;;5048156;28;20204;-89
2023/02/02 07:14:37;;;;;;;7.50;2.13;;;4.70;92.10;;;;;;5048094;28;20198;-89
2023/02/02 07:17:04;;;;;;;3.40;1.73;;;4.70;92.30;;;;;;5043864;28;20198;-88
2023/02/02 07:19:33;;;;;;;6.07;2.03;;;4.70;92.10;;;;;;5041633;28;20625;-88
2023/02/02 07:22:00;;;;;;;4.40;2.33;;;4.80;91.90;;;;;;5053233;28;20202;-90
2023/02/02 07:24:28;;;;;;;5.07;2.23;;;4.80;91.90;;;;;;5056585;28;20227;-91
2023/02/02 07:26:56;;;;;;;4.50;2.00;;;4.70;91.80;;;;;;5061245;28;20218;-91
2023/02/02 07:29:23;;;;;;;4.80;2.00;;;4.80;92.00;;;;;;5053313;28;20198;-91
2023/02/02 07:31:51;;;;;;;5.47;2.13;;;4.80;92.10;;;;;;5051942;28;20247;-90
2023/02/02 07:34:18;;;;;;;5.70;2.30;;;4.80;91.80;;;;;;5044052;28;20210;-89
2023/02/02 07:36:47;;;;;;;4.13;1.90;;;4.80;91.60;;;;;;5046713;28;20359;-89
2023/02/02 07:39:14;;;;;;;6.33;1.90;;;4.80;91.70;;;;;;5044872;28;20217;-89
2023/02/02 07:41:42;;;;;;;6.33;1.80;;;4.90;91.70;;;;;;5052368;28;20270;-88
2023/02/02 07:44:14;;;;;;;7.57;2.17;;;4.90;91.80;;;;;;5055953;28;20193;-91
2023/02/02 07:46:41;;;;;;;2.23;1.70;;;4.90;91.90;;;;;;5058984;28;20240;-88
2023/02/02 07:51:42;;;;;;;3.53;1.77;;;4.90;91.80;;;;;;5015318;28;20218;-91
2023/02/02 07:54:10;;;;;;;6.27;2.03;;;4.90;91.90;;;;;;5529183;22;20235;-89
2023/02/02 07:56:39;;;;;;;3.97;1.80;;;4.90;92.40;;;;;;5100214;23;20256;-88
2023/02/02 07:59:06;;;;;;;7.63;2.13;;;4.90;92.40;;;;;;5059427;28;21873;-88
2023/02/02 08:01:33;;;;;;;4.13;2.07;;;4.90;92.40;;;;;;5394718;23;20234;-88
2023/02/02 08:20:38;;;;;;;4.17;2.20;;;4.80;94.00;;;;;;6022299;22;20221;-90
2023/02/02 08:28:16;;;;;;;7.47;2.17;;;4.80;93.80;;;;;;5214528;22;20338;-90
2023/02/02 08:35:57;;;;;;;8.23;2.30;;;4.80;93.90;;;;;;5471320;22;20222;-94
2023/02/02 08:38:24;;;;;;;6.23;2.53;;;4.80;93.90;;;;;;5175870;22;20234;-91
2023/02/02 08:40:51;;;;;;;4.73;2.10;;;4.80;93.80;;;;;;5200434;23;20237;-92
2023/02/02 08:45:55;;;;;;;5.70;2.37;;;4.80;93.80;;;;;;5867764;22;20269;-90
2023/02/02 08:48:22;;;;;;;3.73;1.90;;;4.80;93.50;;;;;;5059016;28;20737;-91
2023/02/02 08:50:54;;;;;;;4.27;2.37;;;4.90;93.80;;;;;;5055037;28;20232;-90
2023/02/02 08:53:24;;;;;;;6.97;2.30;;;4.90;94.20;;;;;;5041920;28;20210;-90
2023/02/02 08:55:58;;;;;;;5.00;2.17;;;4.90;94.40;;;;;;5054871;28;20206;-89
2023/02/02 08:58:25;;;;;;;6.47;2.40;;;4.80;94.90;;;;;;5029882;28;20193;-92
2023/02/02 09:00:54;;;;;;;6.43;2.90;;;4.60;95.00;;;;;;5052036;28;20209;-88
2023/02/02 09:03:21;;;;;;;5.53;2.10;;;4.60;95.50;;;;;;5049888;28;20558;-88
2023/02/02 09:05:49;;;;;;;4.13;2.30;;;4.60;95.50;;;;;;5043677;28;20198;-89
2023/02/02 09:08:16;;;;;;;5.27;2.13;;;4.60;95.40;;;;;;5050049;28;20229;-88
2023/02/02 09:10:44;;;;;;;7.50;2.40;;;4.60;95.40;;;;;;5049535;28;20688;-88
2023/02/02 09:13:11;;;;;;;5.43;2.40;;;4.60;95.50;;;;;;5049630;28;20212;-89
2023/02/02 09:15:38;;;;;;;3.67;2.07;;;4.60;95.40;;;;;;5053258;28;20205;-89
2023/02/02 09:18:05;;;;;;;5.03;2.10;;;4.70;95.20;;;;;;5258153;22;20442;-90
2023/02/02 09:20:33;;;;;;;5.17;2.53;;;4.70;95.00;;;;;;5066657;28;20208;-90
2023/02/02 09:23:00;;;;;;;6.70;2.40;;;4.80;95.00;;;;;;5140745;22;20221;-92
2023/02/02 09:25:27;;;;;;;5.47;2.30;;;4.80;95.00;;;;;;5061174;28;20220;-91
2023/02/02 09:27:56;;;;;;;3.13;2.30;;;4.90;95.00;;;;;;5247277;23;20237;-90
2023/02/02 09:30:23;;;;;;;7.60;2.30;;;4.90;95.00;;;;;;5097383;22;20705;-89
2023/02/02 09:32:51;;;;;;;4.70;2.00;;;4.80;94.90;;;;;;5066181;28;20189;-92
2023/02/02 09:35:18;;;;;;;4.67;2.13;;;4.80;95.00;;;;;;5059231;28;20218;-90
2023/02/02 09:37:45;;;;;;;6.00;2.47;;;4.80;95.00;;;;;;5056105;28;20190;-90
2023/02/02 09:40:18;;;;;;;5.17;2.03;;;4.80;95.00;;;;;;5046195;28;20193;-91
2023/02/02 10:01:02;;;;;;;6.20;2.63;;;4.90;95.00;;;;;;5641529;22;20245;-90
2023/02/02 10:08:44;;;;;;;5.17;2.00;;;5.00;95.10;;;;;;5399024;23;20245;-91
2023/02/02 10:11:29;;;;;;;3.53;2.00;;;5.10;95.10;;;;;;5043504;28;20217;-91
2023/02/02 10:14:03;;;;;;;4.80;2.17;;;5.10;95.10;;;;;;5023926;28;20198;-90
2023/02/02 10:16:33;;;;;;;3.27;2.23;;;5.20;94.50;;;;;;5039103;28;20290;-92
2023/02/02 10:19:03;;;;;;;4.67;2.07;;;5.20;94.40;;;;;;5638968;23;20237;-92
2023/02/02 10:21:39;;;;;;;4.57;1.90;;;5.20;94.60;;;;;;5044873;28;20187;-91
2023/02/02 10:24:16;;;;;;;5.47;2.40;;;5.20;94.90;;;;;;5043123;28;20222;-91
2023/02/02 10:26:47;;;;;;;4.13;2.00;;;5.20;94.10;;;;;;5042939;28;20222;-91
2023/02/02 10:29:18;;;;;;;4.20;1.90;;;5.20;94.20;;;;;;5046084;28;20227;-91
2023/02/02 10:31:59;;;;;;;4.47;1.90;;;5.20;94.20;;;;;;5041233;28;20202;-90
2023/02/02 10:34:32;;;;;;;6.23;2.30;;;5.20;93.90;;;;;;5039733;28;20206;-91
2023/02/02 10:37:26;;;;;;;4.93;2.13;;;5.20;94.10;;;;;;5040639;28;20194;-91
2023/02/02 10:40:05;;;;;;;4.67;1.80;;;5.20;94.00;;;;;;5032070;28;20202;-92
2023/02/02 10:42:44;;;;;;;3.90;2.00;;;5.20;93.30;;;;;;5032075;28;20194;-89
2023/02/02 10:45:15;;;;;;;3.87;1.73;;;5.20;93.60;;;;;;5029764;28;20242;-90
2023/02/02 10:47:45;;;;;;;4.23;1.80;;;5.20;93.30;;;;;;5034022;28;20233;-90
2023/02/02 10:50:18;;;;;;;2.90;2.00;;;5.20;93.60;;;;;;5035083;28;20205;-89
2023/02/02 10:52:48;;;;;;;6.20;2.23;;;5.20;93.70;;;;;;5035575;28;20195;-89
2023/02/02 10:55:24;;;;;;;6.47;2.00;;;5.20;93.30;;;;;;5036179;28;20203;-91
2023/02/02 11:00:49;;;;;;;3.17;1.70;;;5.30;93.40;;;;;;5003659;28;20659;-89
2023/02/02 11:03:21;;;;;;;4.70;2.20;;;5.30;93.20;;;;;;5204922;23;20212;-91
2023/02/02 11:08:30;;;;;;;5.23;2.30;;;5.30;93.40;;;;;;5356770;23;21004;-90
2023/02/02 11:11:02;;;;;;;3.27;1.90;;;5.30;93.50;;;;;;5030363;28;20198;-90
2023/02/02 11:13:33;;;;;;;5.40;1.80;;;5.40;93.30;;;;;;5011666;28;20206;-87
2023/02/02 11:16:20;;;;;;;6.67;2.00;;;5.50;93.30;;;;;;5026744;28;20202;-89
2023/02/02 11:18:52;;;;;;;3.23;2.10;;;5.60;92.70;;;;;;5036285;28;20198;-91
2023/02/02 11:21:21;;;;;;;3.00;1.73;;;5.50;92.50;;;;;;5031702;28;20202;-89
2023/02/02 11:23:56;;;;;;;5.67;1.90;;;5.60;93.10;;;;;;5029961;28;20221;-88
2023/02/02 11:26:24;;;;;;;4.33;1.90;;;5.60;92.50;;;;;;5009765;28;20670;-87
2023/02/02 11:28:53;;;;;;;3.23;2.00;;;5.60;92.70;;;;;;5023834;28;20209;-88
2023/02/02 11:31:31;;;;;;;4.17;1.70;;;5.70;92.70;;;;;;5024512;28;20191;-91
2023/02/02 11:34:15;;;;;;;5.87;2.13;;;5.90;92.40;;;;;;5022572;28;20210;-86
2023/02/02 11:36:58;;;;;;;3.50;1.60;;;5.80;91.90;;;;;;5030195;28;20206;-88
2023/02/02 11:39:25;;;;;;;4.50;1.90;;;5.70;92.50;;;;;;5034591;28;20204;-90
2023/02/02 11:42:00;;;;;;;3.50;1.80;;;5.70;92.70;;;;;;5029807;28;20198;-88
2023/02/02 11:44:31;;;;;;;3.00;1.80;;;5.60;92.70;;;;;;5026891;28;20197;-91
2023/02/02 11:46:58;;;;;;;5.47;2.13;;;5.50;93.30;;;;;;5026026;28;20230;-90
2023/02/02 11:49:28;;;;;;;3.43;1.80;;;5.40;94.00;;;;;;5028663;28;20194;-90
2023/02/02 11:52:00;;;;;;;4.70;2.03;;;5.50;93.90;;;;;;5029115;28;20199;-88
2023/02/02 11:54:31;;;;;;;4.30;1.90;;;5.60;93.90;;;;;;5037253;28;20207;-92
2023/02/02 11:57:00;;;;;;;4.40;2.67;;;5.60;93.90;;;;;;5031223;28;20206;-89
2023/02/02 11:59:30;;;;;;;4.00;1.77;;;5.70;93.30;;;;;;5026947;28;20203;-90
2023/02/02 12:02:28;;;;;;;5.37;2.37;;;5.70;93.20;;;;;;5047349;28;20213;-89
2023/02/02 12:05:14;;;;;;;4.40;1.80;;;5.80;92.60;;;;;;5004421;28;20730;-89
2023/02/02 12:07:43;;;;;;;5.00;2.27;;;5.90;92.60;;;;;;5032101;28;20238;-92
2023/02/02 12:10:17;;;;;;;3.50;1.73;;;5.90;93.10;;;;;;5033058;28;20205;-92
2023/02/02 12:12:55;;;;;;;2.43;1.90;;;6.00;93.00;;;;;;5035000;28;20200;-90
2023/02/02 12:15:28;;;;;;;4.50;2.10;;;5.90;92.60;;;;;;5037169;28;20283;-92
2023/02/02 12:18:07;;;;;;;3.17;1.83;;;5.90;93.00;;;;;;5039500;28;20805;-93
2023/02/02 12:20:45;;;;;;;4.50;1.90;;;5.80;93.00;;;;;;5043676;28;20195;-91
2023/02/02 12:23:36;;;;;;;3.33;1.53;;;5.60;93.50;;;;;;5040546;28;20200;-91
2023/02/02 12:26:19;;;;;;;2.83;1.90;;;5.60;93.50;;;;;;5040275;28;20207;-92
2023/02/02 12:29:07;;;;;;;4.30;1.97;;;5.50;94.00;;;;;;5034336;28;20223;-91
2023/02/02 12:31:45;;;;;;;3.87;1.80;;;5.50;94.10;;;;;;5030208;28;20202;-87
2023/02/02 12:34:25;;;;;;;2.20;2.00;;;5.40;94.50;;;;;;5029463;28;20225;-87
2023/02/02 12:37:03;;;;;;;2.33;1.80;;;5.40;95.20;;;;;;5011339;28;22385;-87
2023/02/02 12:39:38;;;;;;;2.83;1.73;;;5.50;94.70;;;;;;5029751;28;20658;-86
2023/02/02 12:42:19;;;;;;;3.20;1.93;;;5.40;95.10;;;;;;5025970;28;20661;-86
2023/02/02 12:45:00;;;;;;;4.47;1.53;;;5.30;95.10;;;;;;5027732;28;20595;-86
2023/02/02 12:47:31;;;;;;;3.47;1.97;;;5.30;95.40;;;;;;5027887;28;20666;-87
2023/02/02 12:50:12;;;;;;;4.27;1.70;;;5.30;95.20;;;;;;5037149;28;20199;-85
2023/02/02 12:52:56;;;;;;;4.03;1.80;;;5.30;95.10;;;;;;5033162;28;20205;-86
2023/02/02 12:55:29;;;;;;;3.30;1.50;;;5.30;95.10;;;;;;5029947;28;20207;-86
2023/02/02 12:58:09;;;;;;;2.80;1.80;;;5.20;95.30;;;;;;5026812;28;20203;-86
2023/02/02 13:01:10;;;;;;;2.43;1.73;;;5.30;95.60;;;;;;5027886;28;20798;-85
2023/02/02 13:04:03;;;;;;;3.00;1.80;;;5.20;95.30;;;;;;5007280;28;20213;-85
2023/02/02 13:07:03;;;;;;;4.13;2.37;;;5.10;96.00;;;;;;5024675;28;20256;-84
2023/02/02 13:09:36;;;;;;;4.20;1.87;;;5.20;96.20;;;;;;5027230;28;20253;-89
2023/02/02 13:12:08;;;;;;;4.17;1.90;;;5.00;96.30;;;;;;5029300;28;20604;-84
2023/02/02 13:14:38;;;;;;;3.13;1.97;;;4.90;97.10;;;;;;5025744;28;20577;-84
2023/02/02 13:17:09;;;;;;;5.07;2.03;;;4.90;97.10;;;;;;5026197;28;20711;-83
2023/02/02 13:19:40;;;;;;;2.57;1.90;;;4.80;97.80;;;;;;5028800;28;20214;-84
2023/02/02 13:22:15;;;;;;;3.77;1.67;;;4.80;97.60;;;;;;5015063;28;20197;-84
2023/02/02 13:24:47;;;;;;;3.93;1.87;;;4.70;98.10;;;;;;5028092;28;20732;-85
2023/02/02 13:27:18;;;;;;;5.40;1.77;;;4.70;98.20;;;;;;5028913;28;20212;-84
2023/02/02 13:29:51;;;;;;;3.70;2.07;;;4.70;98.50;;;;;;5025310;28;20685;-85
2023/02/02 13:32:24;;;;;;;7.03;2.27;;;4.70;98.70;;;;;;5027162;28;20207;-85
2023/02/02 13:34:56;;;;;;;4.00;1.83;;;4.70;98.80;;;;;;5030344;28;20210;-86
2023/02/02 13:37:30;;;;;;;3.83;2.27;;;4.60;99.10;;;;;;5031525;28;20237;-84
2023/02/02 13:40:02;;;;;;;5.73;2.20;;;4.70;99.00;;;;;;5031133;28;20737;-88
2023/02/02 13:42:45;;;;;;;4.13;2.33;;;4.70;98.80;;;;;;5029350;28;20693;-86
2023/02/02 13:45:43;;;;;;;3.70;1.93;;;4.60;99.10;;;;;;5030891;28;20234;-89
2023/02/02 13:48:22;;;;;;;5.40;2.00;;;4.70;99.60;;;;;;5013098;28;20787;-86
2023/02/02 13:51:15;;;;;;;4.43;2.20;;;4.70;99.50;;;;;;5033020;28;20198;-88
2023/02/02 13:53:57;;;;;;;5.43;2.17;;;4.70;99.50;;;;;;5028409;28;20855;-84
2023/02/02 13:56:46;;;;;;;6.77;2.37;;;4.70;99.90;;;;;;5027611;28;20662;-87
2023/02/02 13:59:33;;;;;;;3.97;2.10;;;4.60;99.90;;;;;;5030742;28;20213;-87
2023/02/02 14:02:02;;;;;;;4.60;2.30;;;4.50;99.90;;;;;;5030201;28;20556;-86
2023/02/02 14:04:31;;;;;;;3.50;2.20;;;4.50;99.90;;;;;;5027363;28;20745;-88
2023/02/02 14:07:03;;;;;;;6.17;2.37;;;4.50;99.90;;;;;;5026493;28;20201;-87
2023/02/02 14:09:35;;;;;;;4.33;2.67;;;4.40;99.90;;;;;;5026561;28;20222;-89
2023/02/02 14:12:06;;;;;;;5.10;2.40;;;4.50;99.90;;;;;;5022687;28;20468;-86
2023/02/02 14:14:35;;;;;;;4.83;2.50;;;4.50;99.90;;;;;;5023268;28;20214;-89
2023/02/02 14:17:05;;;;;;;5.83;2.10;;;4.50;99.90;;;;;;5024674;28;20724;-87
2023/02/02 14:19:51;;;;;;;4.73;2.40;;;4.40;99.90;;;;;;5024538;28;20194;-87
2023/02/02 14:22:37;;;;;;;4.17;2.17;;;4.40;99.90;;;;;;5024792;28;20201;-85
2023/02/02 14:25:46;;;;;;;4.10;2.00;;;4.40;99.90;;;;;;5024299;28;20438;-86
2023/02/02 14:28:39;;;;;;;5.77;2.07;;;4.40;99.90;;;;;;5028149;28;20214;-86